createdAt,value
2024-03-06T00:00:43.757Z,6.80
2024-03-06T00:01:45.966Z,6.80
2024-03-06T00:02:49.106Z,6.80
2024-03-06T00:03:51.069Z,6.80
2024-03-06T00:04:55.454Z,6.80
2024-03-06T00:05:58.980Z,6.70
2024-03-06T00:07:02.226Z,6.80
2024-03-06T00:08:04.941Z,6.80
2024-03-06T00:09:09.469Z,6.80
2024-03-06T00:10:11.628Z,6.70
2024-03-06T00:11:15.077Z,6.70
2024-03-06T00:12:17.466Z,6.80
2024-03-06T00:13:21.547Z,6.80
2024-03-06T00:14:23.537Z,6.80
2024-03-06T00:15:26.490Z,6.80
2024-03-06T00:16:28.569Z,6.80
2024-03-06T00:17:31.594Z,6.80
2024-03-06T00:18:33.557Z,6.80
2024-03-06T00:19:36.472Z,6.80
2024-03-06T00:20:38.759Z,6.70
2024-03-06T00:21:43.249Z,6.70
2024-03-06T00:22:45.352Z,6.70
2024-03-06T00:23:48.300Z,6.70
2024-03-06T00:24:50.223Z,6.70
2024-03-06T00:25:53.385Z,6.70
2024-03-06T00:26:55.316Z,6.70
2024-03-06T00:27:58.411Z,6.70
2024-03-06T00:29:00.353Z,6.70
2024-03-06T00:30:02.640Z,6.70
2024-03-06T00:31:07.661Z,6.70
2024-03-06T00:32:09.658Z,6.70
2024-03-06T00:33:12.637Z,6.70
2024-03-06T00:34:15.092Z,6.70
2024-03-06T00:35:18.533Z,6.70
2024-03-06T00:36:20.646Z,6.70
2024-03-06T00:37:25.288Z,6.70
2024-03-06T00:38:27.574Z,6.70
2024-03-06T00:39:30.532Z,6.60
2024-03-06T00:40:33.161Z,6.60
2024-03-06T00:41:35.556Z,6.60
2024-03-06T00:42:38.746Z,6.60
2024-03-06T00:43:41.005Z,6.60
2024-03-06T00:44:43.944Z,6.60
2024-03-06T00:45:45.985Z,6.60
2024-03-06T00:46:48.614Z,6.60
2024-03-06T00:47:51.950Z,6.60
2024-03-06T00:48:53.939Z,6.60
2024-03-06T00:49:56.870Z,6.60
2024-03-06T00:50:58.955Z,6.60
2024-03-06T00:52:02.024Z,6.60
2024-03-06T00:53:05.751Z,6.60
2024-03-06T00:54:08.911Z,6.50
2024-03-06T00:55:11.226Z,6.60
2024-03-06T00:56:14.155Z,6.50
2024-03-06T00:57:16.623Z,6.50
2024-03-06T00:58:18.609Z,6.50
2024-03-06T00:59:21.567Z,6.50
2024-03-06T01:00:23.545Z,6.50
2024-03-06T01:01:28.096Z,6.40
2024-03-06T01:02:30.288Z,6.40
2024-03-06T01:03:33.184Z,6.40
2024-03-06T01:04:35.127Z,6.40
2024-03-06T01:05:38.042Z,6.30
2024-03-06T01:06:41.119Z,6.30
2024-03-06T01:07:44.214Z,6.30
2024-03-06T01:08:47.493Z,6.30
2024-03-06T01:09:50.693Z,6.30
2024-03-06T01:10:52.885Z,6.30
2024-03-06T01:11:55.243Z,6.30
2024-03-06T01:12:58.458Z,6.30
2024-03-06T01:14:00.707Z,6.20
2024-03-06T01:15:03.854Z,6.30
2024-03-06T01:16:06.807Z,6.20
2024-03-06T01:17:09.783Z,6.30
2024-03-06T01:18:11.761Z,6.30
2024-03-06T01:19:15.033Z,6.30
2024-03-06T01:20:17.510Z,6.30
2024-03-06T01:21:20.559Z,6.30
2024-03-06T01:22:22.509Z,6.30
2024-03-06T01:23:25.442Z,6.30
2024-03-06T01:24:28.957Z,6.40
2024-03-06T01:25:32.341Z,6.40
2024-03-06T01:26:34.277Z,6.40
2024-03-06T01:27:37.185Z,6.40
2024-03-06T01:28:39.198Z,6.40
2024-03-06T01:29:42.093Z,6.40
2024-03-06T01:30:44.420Z,6.40
2024-03-06T01:31:47.996Z,6.40
2024-03-06T01:32:50.183Z,6.40
2024-03-06T01:33:53.075Z,6.40
2024-03-06T01:34:55.409Z,6.40
2024-03-06T01:35:58.759Z,6.50
2024-03-06T01:37:00.717Z,6.50
2024-03-06T01:38:02.741Z,6.50
2024-03-06T01:39:05.681Z,6.50
2024-03-06T01:40:10.186Z,6.50
2024-03-06T01:41:13.206Z,6.50
2024-03-06T01:42:17.776Z,6.60
2024-03-06T01:43:20.648Z,6.60
2024-03-06T01:44:23.899Z,6.60
2024-03-06T01:45:25.829Z,6.60
2024-03-06T01:46:28.843Z,6.60
2024-03-06T01:47:30.832Z,6.60
2024-03-06T01:48:33.964Z,6.60
2024-03-06T01:49:41.155Z,6.60
2024-03-06T01:50:48.392Z,6.60
2024-03-06T01:51:51.265Z,6.60
2024-03-06T01:52:54.674Z,6.60
2024-03-06T01:53:57.127Z,6.60
2024-03-06T01:54:59.319Z,6.60
2024-03-06T01:56:05.070Z,6.60
2024-03-06T01:57:07.452Z,6.60
2024-03-06T01:58:09.654Z,6.60
2024-03-06T01:59:21.335Z,6.60
2024-03-06T02:00:27.642Z,6.60
2024-03-06T02:01:30.832Z,6.60
2024-03-06T02:02:32.858Z,6.60
2024-03-06T02:03:35.781Z,6.60
2024-03-06T02:04:37.875Z,6.60
2024-03-06T02:05:41.232Z,6.60
2024-03-06T02:06:43.410Z,6.60
2024-03-06T02:07:46.854Z,6.60
2024-03-06T02:08:49.148Z,6.60
2024-03-06T02:09:53.042Z,6.60
2024-03-06T02:10:56.020Z,6.60
2024-03-06T02:12:00.425Z,6.60
2024-03-06T02:13:02.768Z,6.60
2024-03-06T02:14:07.676Z,6.60
2024-03-06T02:15:10.068Z,6.60
2024-03-06T02:16:12.928Z,6.60
2024-03-06T02:17:14.901Z,6.60
2024-03-06T02:18:17.910Z,6.60
2024-03-06T02:19:20.297Z,6.60
2024-03-06T02:20:23.737Z,6.60
2024-03-06T02:21:27.089Z,6.60
2024-03-06T02:22:29.153Z,6.60
2024-03-06T02:23:32.299Z,6.70
2024-03-06T02:24:34.530Z,6.70
2024-03-06T02:25:37.647Z,6.70
2024-03-06T02:26:39.755Z,6.70
2024-03-06T02:27:42.616Z,6.70
2024-03-06T02:28:47.759Z,6.70
2024-03-06T02:29:51.443Z,6.60
2024-03-06T02:30:53.433Z,6.60
2024-03-06T02:31:55.351Z,6.60
2024-03-06T02:32:58.765Z,6.60
2024-03-06T02:34:00.793Z,6.50
2024-03-06T02:35:04.614Z,6.50
2024-03-06T02:36:08.772Z,6.50
2024-03-06T02:37:12.305Z,6.50
2024-03-06T02:38:14.304Z,6.40
2024-03-06T02:39:17.311Z,6.40
2024-03-06T02:40:19.393Z,6.30
2024-03-06T02:41:22.684Z,6.40
2024-03-06T02:42:28.820Z,6.30
2024-03-06T02:43:31.873Z,6.30
2024-03-06T02:44:34.494Z,6.30
2024-03-06T02:45:37.987Z,6.30
2024-03-06T02:46:40.081Z,6.20
2024-03-06T02:47:42.229Z,6.20
2024-03-06T02:48:45.233Z,6.20
2024-03-06T02:49:47.247Z,6.10
2024-03-06T02:50:50.246Z,6.10
2024-03-06T02:51:53.559Z,6.10
2024-03-06T02:52:56.486Z,6.10
2024-03-06T02:53:58.601Z,6.10
2024-03-06T02:55:02.081Z,6.00
2024-03-06T02:56:04.344Z,6.00
2024-03-06T02:57:08.186Z,6.00
2024-03-06T02:58:10.275Z,6.00
2024-03-06T02:59:13.228Z,6.00
2024-03-06T03:00:17.186Z,6.00
2024-03-06T03:01:20.340Z,6.00
2024-03-06T03:02:22.342Z,6.00
2024-03-06T03:03:26.042Z,6.00
2024-03-06T03:04:28.928Z,6.00
2024-03-06T03:05:30.974Z,5.90
2024-03-06T03:06:33.931Z,5.90
2024-03-06T03:07:37.236Z,5.90
2024-03-06T03:08:40.942Z,5.90
2024-03-06T03:09:42.887Z,6.00
2024-03-06T03:10:46.075Z,5.90
2024-03-06T03:11:49.028Z,5.90
2024-03-06T03:12:51.073Z,5.90
2024-03-06T03:13:54.034Z,5.90
2024-03-06T03:14:56.006Z,6.00
2024-03-06T03:15:58.092Z,5.90
2024-03-06T03:17:01.519Z,6.00
2024-03-06T03:18:04.109Z,6.00
2024-03-06T03:19:09.432Z,6.00
2024-03-06T03:20:12.408Z,6.00
2024-03-06T03:21:14.544Z,6.00
2024-03-06T03:22:17.483Z,6.00
2024-03-06T03:23:23.465Z,6.10
2024-03-06T03:24:26.839Z,6.10
2024-03-06T03:25:29.765Z,6.10
2024-03-06T03:26:31.705Z,6.10
2024-03-06T03:27:34.626Z,6.10
2024-03-06T03:28:38.227Z,6.10
2024-03-06T03:29:42.260Z,6.20
2024-03-06T03:30:45.234Z,6.20
2024-03-06T03:31:48.394Z,6.20
2024-03-06T03:32:50.435Z,6.20
2024-03-06T03:33:53.350Z,6.20
2024-03-06T03:34:55.289Z,6.20
2024-03-06T03:35:58.491Z,6.20
2024-03-06T03:37:00.437Z,6.20
2024-03-06T03:38:04.701Z,6.20
2024-03-06T03:39:14.316Z,6.20
2024-03-06T03:40:17.353Z,6.30
2024-03-06T03:41:19.983Z,6.30
2024-03-06T03:42:22.950Z,6.30
2024-03-06T03:43:25.101Z,6.30
2024-03-06T03:44:28.171Z,6.30
2024-03-06T03:45:30.175Z,6.20
2024-03-06T03:46:33.387Z,6.30
2024-03-06T03:47:35.362Z,6.30
2024-03-06T03:48:39.231Z,6.30
2024-03-06T03:49:41.382Z,6.20
2024-03-06T03:50:43.452Z,6.20
2024-03-06T03:51:46.416Z,6.20
2024-03-06T03:52:48.775Z,6.20
2024-03-06T03:53:54.037Z,6.30
2024-03-06T03:54:58.305Z,6.30
2024-03-06T03:56:00.465Z,6.20
2024-03-06T03:57:03.531Z,6.20
2024-03-06T03:58:06.661Z,6.30
2024-03-06T03:59:09.791Z,6.30
2024-03-06T04:00:12.766Z,6.30
2024-03-06T04:01:16.040Z,6.30
2024-03-06T04:02:18.359Z,6.30
2024-03-06T04:03:21.844Z,6.30
2024-03-06T04:04:24.034Z,6.30
2024-03-06T04:05:27.059Z,6.30
2024-03-06T04:06:29.273Z,6.30
2024-03-06T04:07:32.625Z,6.30
2024-03-06T04:08:34.604Z,6.30
2024-03-06T04:09:37.659Z,6.30
2024-03-06T04:10:42.583Z,6.30
2024-03-06T04:11:45.768Z,6.30
2024-03-06T04:12:47.767Z,6.30
2024-03-06T04:13:50.650Z,6.40
2024-03-06T04:14:53.310Z,6.40
2024-03-06T04:15:55.216Z,6.40
2024-03-06T04:16:58.896Z,6.40
2024-03-06T04:18:01.018Z,6.40
2024-03-06T04:19:04.734Z,6.40
2024-03-06T04:20:07.734Z,6.40
2024-03-06T04:21:11.545Z,6.40
2024-03-06T04:22:15.182Z,6.40
2024-03-06T04:23:17.546Z,6.40
2024-03-06T04:24:20.758Z,6.40
2024-03-06T04:25:22.835Z,6.30
2024-03-06T04:26:27.064Z,6.40
2024-03-06T04:27:29.313Z,6.30
2024-03-06T04:28:32.969Z,6.20
2024-03-06T04:29:35.032Z,6.20
2024-03-06T04:30:38.148Z,6.10
2024-03-06T04:31:40.820Z,6.10
2024-03-06T04:32:44.184Z,6.00
2024-03-06T04:33:46.559Z,6.00
2024-03-06T04:34:48.701Z,5.90
2024-03-06T04:35:51.669Z,5.90
2024-03-06T04:36:54.523Z,5.90
2024-03-06T04:37:56.671Z,5.80
2024-03-06T04:38:59.634Z,5.80
2024-03-06T04:40:01.767Z,5.80
2024-03-06T04:41:07.095Z,5.80
2024-03-06T04:42:10.510Z,5.80
2024-03-06T04:43:13.464Z,5.70
2024-03-06T04:44:15.839Z,5.70
2024-03-06T04:45:18.451Z,5.70
2024-03-06T04:46:21.448Z,5.70
2024-03-06T04:47:27.230Z,5.70
2024-03-06T04:48:31.361Z,5.70
2024-03-06T04:49:34.255Z,5.70
2024-03-06T04:50:37.144Z,5.70
2024-03-06T04:51:39.691Z,5.70
2024-03-06T04:52:42.795Z,5.60
2024-03-06T04:53:44.738Z,5.60
2024-03-06T04:54:47.837Z,5.60
2024-03-06T04:55:50.205Z,5.60
2024-03-06T04:56:53.203Z,5.60
2024-03-06T04:57:56.480Z,5.60
2024-03-06T04:59:03.912Z,5.60
2024-03-06T05:00:07.073Z,5.60
2024-03-06T05:01:10.161Z,5.60
2024-03-06T05:02:12.467Z,5.60
2024-03-06T05:58:14.410Z,5.20
2024-03-06T05:59:19.576Z,5.20
2024-03-06T06:00:23.128Z,5.20
2024-03-06T06:01:27.987Z,5.20
2024-03-06T06:02:30.110Z,5.20
2024-03-06T06:03:33.098Z,5.20
2024-03-06T06:04:44.152Z,5.20
2024-03-06T06:05:51.227Z,5.20
2024-03-06T06:06:53.202Z,5.30
2024-03-06T06:07:56.315Z,5.30
2024-03-06T06:08:58.483Z,5.20
2024-03-06T06:10:01.566Z,5.30
2024-03-06T06:11:04.215Z,5.30
2024-03-06T06:12:07.209Z,5.30
2024-03-06T06:13:09.390Z,5.30
2024-03-06T06:14:11.362Z,5.30
2024-03-06T06:15:14.328Z,5.30
2024-03-06T06:16:16.319Z,5.30
2024-03-06T06:17:23.056Z,5.30
2024-03-06T06:18:26.409Z,5.30
2024-03-06T06:19:29.294Z,5.30
2024-03-06T06:20:31.498Z,5.40
2024-03-06T06:21:36.765Z,5.30
2024-03-06T06:22:39.169Z,5.30
2024-03-06T06:23:42.234Z,5.30
2024-03-06T06:24:47.737Z,5.30
2024-03-06T06:25:50.952Z,5.30
2024-03-06T06:26:53.216Z,5.30
2024-03-06T06:27:56.113Z,5.30
2024-03-06T06:28:58.296Z,5.30
2024-03-06T06:30:03.750Z,5.30
2024-03-06T06:31:07.802Z,5.30
2024-03-06T06:32:10.834Z,5.30
2024-03-06T06:33:14.317Z,5.30
2024-03-06T06:34:17.362Z,5.30
2024-03-06T06:35:19.432Z,5.30
2024-03-06T06:36:22.566Z,5.30
2024-03-06T06:37:24.784Z,5.30
2024-03-06T06:38:28.046Z,5.20
2024-03-06T06:39:30.181Z,5.20
2024-03-06T06:40:33.306Z,5.20
2024-03-06T06:41:35.409Z,5.20
2024-03-06T06:42:38.045Z,5.20
2024-03-06T06:43:42.686Z,5.20
2024-03-06T06:44:44.626Z,5.30
2024-03-06T06:45:47.687Z,5.30
2024-03-06T06:46:49.675Z,5.30
2024-03-06T06:47:54.592Z,5.30
2024-03-06T06:48:57.989Z,5.30
2024-03-06T06:50:00.090Z,5.30
2024-03-06T06:51:03.624Z,5.20
2024-03-06T06:52:05.843Z,5.20
2024-03-06T06:53:08.772Z,5.20
2024-03-06T06:54:10.909Z,5.20
2024-03-06T06:55:13.806Z,5.20
2024-03-06T06:56:15.778Z,5.20
2024-03-06T06:57:18.727Z,5.20
2024-03-06T06:58:21.373Z,5.10
2024-03-06T06:59:26.181Z,5.20
2024-03-06T07:00:29.601Z,5.10
2024-03-06T07:01:34.049Z,5.10
2024-03-06T07:02:36.049Z,5.10
2024-03-06T07:03:39.222Z,5.10
2024-03-06T07:04:42.486Z,5.20
2024-03-06T07:05:45.481Z,5.20
2024-03-06T07:06:47.703Z,5.20
2024-03-06T07:07:53.049Z,5.20
2024-03-06T07:08:56.977Z,5.20
2024-03-06T07:10:00.073Z,5.20
2024-03-06T07:11:02.236Z,5.20
2024-03-06T07:12:06.182Z,5.20
2024-03-06T07:13:09.609Z,5.10
2024-03-06T07:14:14.553Z,5.20
2024-03-06T07:15:16.842Z,5.20
2024-03-06T07:16:20.343Z,5.20
2024-03-06T07:17:22.335Z,5.20
2024-03-06T07:18:25.408Z,5.10
2024-03-06T07:19:27.619Z,5.10
2024-03-06T07:20:32.786Z,5.10
2024-03-06T07:21:35.168Z,5.10
2024-03-06T07:22:38.131Z,5.10
2024-03-06T07:23:40.090Z,5.10
2024-03-06T07:24:43.608Z,5.10
2024-03-06T07:25:45.606Z,5.10
2024-03-06T07:26:48.656Z,5.10
2024-03-06T07:27:50.808Z,5.10
2024-03-06T07:28:54.552Z,5.10
2024-03-06T07:29:56.927Z,5.10
2024-03-06T07:30:59.942Z,5.10
2024-03-06T07:32:01.882Z,5.10
2024-03-06T07:33:05.779Z,5.10
2024-03-06T07:34:09.213Z,5.00
2024-03-06T07:35:13.299Z,5.00
2024-03-06T07:36:17.578Z,5.00
2024-03-06T07:37:20.561Z,5.00
2024-03-06T07:38:22.540Z,4.90
2024-03-06T07:39:25.572Z,4.90
2024-03-06T07:40:27.493Z,4.90
2024-03-06T07:41:30.763Z,4.90
2024-03-06T07:42:32.956Z,4.90
2024-03-06T07:43:36.164Z,4.90
2024-03-06T07:44:38.286Z,4.90
2024-03-06T07:45:42.117Z,4.90
2024-03-06T07:46:44.318Z,4.90
2024-03-06T07:47:47.537Z,4.90
2024-03-06T07:48:50.301Z,4.90
2024-03-06T07:49:53.284Z,4.90
2024-03-06T07:50:55.325Z,4.90
2024-03-06T07:52:00.100Z,5.00
2024-03-06T07:53:03.511Z,5.00
2024-03-06T07:54:06.499Z,5.00
2024-03-06T07:55:08.510Z,5.00
2024-03-06T07:56:12.766Z,5.00
2024-03-06T07:57:14.690Z,5.10
2024-03-06T07:58:17.867Z,5.10
2024-03-06T07:59:20.696Z,5.10
2024-03-06T08:00:23.691Z,5.10
2024-03-06T08:01:26.639Z,5.10
2024-03-06T08:02:30.685Z,5.10
2024-03-06T08:03:32.709Z,5.20
2024-03-06T08:04:36.292Z,5.20
2024-03-06T08:05:38.316Z,5.20
2024-03-06T08:06:41.332Z,5.20
2024-03-06T08:07:45.928Z,5.20
2024-03-06T08:08:49.105Z,5.20
2024-03-06T08:09:51.125Z,5.20
2024-03-06T08:10:54.058Z,5.20
2024-03-06T08:11:56.286Z,5.20
2024-03-06T08:12:59.917Z,5.20
2024-03-06T08:14:03.182Z,5.20
2024-03-06T08:15:10.508Z,5.20
2024-03-06T08:16:12.515Z,5.20
2024-03-06T08:17:15.455Z,5.20
2024-03-06T08:18:17.839Z,5.20
2024-03-06T08:19:20.143Z,5.20
2024-03-06T08:20:23.072Z,5.20
2024-03-06T08:21:25.253Z,5.20
2024-03-06T08:22:28.261Z,5.30
2024-03-06T08:23:31.751Z,5.30
2024-03-06T08:24:34.677Z,5.30
2024-03-06T08:25:36.610Z,5.30
2024-03-06T08:26:39.959Z,5.40
2024-03-06T08:27:42.153Z,5.40
2024-03-06T08:28:45.026Z,5.40
2024-03-06T08:29:47.024Z,5.40
2024-03-06T08:30:49.971Z,5.40
2024-03-06T08:31:52.055Z,5.50
2024-03-06T08:32:55.220Z,5.50
2024-03-06T08:33:57.415Z,5.50
2024-03-06T08:35:00.390Z,5.50
2024-03-06T08:36:02.365Z,5.50
2024-03-06T08:37:05.926Z,5.50
2024-03-06T08:38:08.130Z,5.50
2024-03-06T08:39:14.737Z,5.60
2024-03-06T08:40:18.697Z,5.60
2024-03-06T08:41:21.976Z,5.60
2024-03-06T08:42:23.976Z,5.60
2024-03-06T08:43:27.501Z,5.60
2024-03-06T08:44:29.624Z,5.60
2024-03-06T08:45:32.546Z,5.60
2024-03-06T08:46:34.486Z,5.60
2024-03-06T08:47:37.507Z,5.60
2024-03-06T08:48:40.612Z,5.70
2024-03-06T08:49:43.590Z,5.70
2024-03-06T08:50:46.820Z,5.70
2024-03-06T08:51:49.926Z,5.70
2024-03-06T08:52:52.758Z,5.70
2024-03-06T08:53:55.723Z,5.70
2024-03-06T08:54:59.030Z,5.80
2024-03-06T08:56:01.953Z,5.80
2024-03-06T08:57:04.292Z,5.80
2024-03-06T08:58:07.553Z,5.80
2024-03-06T08:59:09.708Z,5.80
2024-03-06T09:00:13.227Z,5.80
2024-03-06T09:01:15.706Z,5.80
2024-03-06T09:02:20.663Z,5.90
2024-03-06T09:03:22.602Z,5.90
2024-03-06T09:04:25.627Z,5.90
2024-03-06T09:05:28.271Z,5.90
2024-03-06T09:06:31.503Z,6.00
2024-03-06T09:07:38.117Z,6.00
2024-03-06T09:08:41.016Z,6.00
2024-03-06T09:09:42.989Z,6.00
2024-03-06T09:10:47.289Z,6.10
2024-03-06T09:11:49.380Z,6.10
2024-03-06T09:12:52.545Z,6.10
2024-03-06T09:13:54.615Z,6.20
2024-03-06T09:14:57.527Z,6.20
2024-03-06T09:15:59.926Z,6.20
2024-03-06T09:17:03.205Z,6.30
2024-03-06T09:18:05.564Z,6.40
2024-03-06T09:19:08.465Z,6.50
2024-03-06T09:20:12.512Z,6.60
2024-03-06T09:21:16.476Z,6.60
2024-03-06T09:22:18.843Z,6.70
2024-03-06T09:23:22.304Z,6.70
2024-03-06T09:24:24.661Z,6.80
2024-03-06T09:25:30.334Z,6.80
2024-03-06T09:26:34.496Z,6.80
2024-03-06T09:27:37.512Z,6.90
2024-03-06T09:28:39.692Z,6.90
2024-03-06T09:29:43.204Z,7.00
2024-03-06T09:30:45.774Z,7.00
2024-03-06T09:31:49.437Z,7.00
2024-03-06T09:32:52.516Z,7.10
2024-03-06T09:33:55.574Z,7.20
2024-03-06T09:34:57.600Z,7.30
2024-03-06T09:36:00.682Z,7.30
2024-03-06T09:37:03.570Z,7.40
2024-03-06T09:38:06.480Z,7.50
2024-03-06T09:39:09.178Z,7.60
2024-03-06T09:40:13.030Z,7.60
2024-03-06T09:41:15.038Z,7.60
2024-03-06T09:42:19.324Z,7.60
2024-03-06T09:43:21.389Z,7.60
2024-03-06T09:44:23.339Z,7.60
2024-03-06T09:45:26.451Z,7.60
2024-03-06T09:46:29.060Z,7.50
2024-03-06T09:47:33.398Z,7.60
2024-03-06T09:48:37.560Z,7.60
2024-03-06T09:49:42.564Z,7.60
2024-03-06T09:50:46.467Z,7.70
2024-03-06T09:51:51.011Z,7.70
2024-03-06T09:52:54.704Z,7.70
2024-03-06T09:53:57.625Z,7.70
2024-03-06T09:55:00.672Z,7.60
2024-03-06T09:56:04.406Z,7.70
2024-03-06T09:57:06.717Z,7.80
2024-03-06T09:58:11.161Z,7.80
2024-03-06T09:59:13.422Z,7.80
2024-03-06T10:00:20.296Z,7.80
2024-03-06T10:01:24.773Z,7.80
2024-03-06T10:02:32.624Z,7.80
2024-03-06T10:03:34.657Z,7.80
2024-03-06T10:04:38.386Z,7.90
2024-03-06T10:05:40.994Z,8.00
2024-03-06T10:06:45.357Z,8.00
2024-03-06T10:07:48.358Z,8.00
2024-03-06T10:08:51.342Z,8.00
2024-03-06T10:09:54.496Z,8.10
2024-03-06T10:10:57.588Z,8.20
2024-03-06T10:12:03.737Z,8.20
2024-03-06T10:13:08.192Z,8.20
2024-03-06T10:14:13.071Z,8.30
2024-03-06T10:15:15.210Z,8.30
2024-03-06T10:16:18.200Z,8.40
2024-03-06T10:17:20.654Z,8.40
2024-03-06T10:18:23.977Z,8.50
2024-03-06T10:19:28.529Z,8.50
2024-03-06T10:20:32.557Z,8.60
2024-03-06T10:21:34.486Z,8.80
2024-03-06T10:22:37.379Z,8.90
2024-03-06T10:23:39.600Z,8.90
2024-03-06T10:24:41.775Z,9.00
2024-03-06T10:25:44.968Z,9.10
2024-03-06T10:26:47.234Z,9.20
2024-03-06T10:28:04.427Z,9.30
2024-03-06T10:29:06.431Z,9.40
2024-03-06T10:30:13.974Z,9.40
2024-03-06T10:31:15.924Z,9.40
2024-03-06T10:32:20.128Z,9.40
2024-03-06T10:33:22.553Z,9.40
2024-03-06T10:34:26.053Z,9.50
2024-03-06T10:35:29.346Z,9.60
2024-03-06T10:36:33.787Z,9.90
2024-03-06T10:37:36.256Z,10.10
2024-03-06T10:38:40.215Z,10.20
2024-03-06T10:39:43.198Z,10.40
2024-03-06T10:40:46.281Z,10.50
2024-03-06T10:41:52.236Z,10.60
2024-03-06T10:42:54.698Z,10.80
2024-03-06T10:43:57.784Z,10.80
2024-03-06T10:45:01.342Z,10.90
2024-03-06T10:46:08.317Z,10.80
2024-03-06T10:47:11.348Z,10.80
2024-03-06T10:48:15.286Z,10.80
2024-03-06T10:49:18.190Z,10.80
2024-03-06T10:50:22.078Z,10.80
2024-03-06T10:51:24.493Z,10.80
2024-03-06T10:52:28.385Z,10.90
2024-03-06T10:53:30.971Z,10.80
2024-03-06T10:54:35.903Z,10.80
2024-03-06T10:55:38.225Z,10.70
2024-03-06T10:56:43.016Z,10.70
2024-03-06T10:57:47.922Z,10.70
2024-03-06T10:58:52.624Z,10.80
2024-03-06T10:59:55.091Z,10.90
2024-03-06T11:00:59.501Z,11.00
2024-03-06T11:02:03.473Z,11.00
2024-03-06T11:03:08.770Z,10.80
2024-03-06T11:04:12.564Z,10.80
2024-03-06T11:05:15.998Z,10.80
2024-03-06T11:06:19.030Z,10.70
2024-03-06T11:07:22.166Z,10.70
2024-03-06T11:08:26.533Z,10.70
2024-03-06T11:09:30.462Z,10.90
2024-03-06T11:10:33.403Z,11.00
2024-03-06T11:11:49.537Z,11.10
2024-03-06T11:12:51.665Z,11.00
2024-03-06T11:13:56.680Z,11.10
2024-03-06T11:14:58.844Z,11.20
2024-03-06T11:16:03.361Z,11.30
2024-03-06T11:17:07.707Z,11.30
2024-03-06T11:18:29.519Z,11.30
2024-03-06T11:19:32.259Z,11.30
2024-03-06T11:20:35.651Z,11.30
2024-03-06T11:21:47.600Z,11.20
2024-03-06T11:23:21.621Z,11.00
2024-03-06T11:24:24.322Z,10.80
2024-03-06T11:25:45.939Z,10.60
2024-03-06T11:26:48.867Z,10.60
2024-03-06T11:28:05.183Z,10.60
2024-03-06T11:29:08.192Z,10.70
2024-03-06T11:30:14.641Z,10.70
2024-03-06T11:31:20.088Z,10.80
2024-03-06T11:32:25.410Z,10.80
2024-03-06T11:33:37.155Z,10.90
2024-03-06T11:34:40.362Z,11.00
2024-03-06T11:35:44.914Z,11.20
2024-03-06T11:36:48.646Z,11.30
2024-03-06T11:37:53.390Z,11.40
2024-03-06T11:38:58.339Z,11.50
2024-03-06T11:40:01.316Z,11.60
2024-03-06T11:41:09.917Z,11.70
2024-03-06T11:42:13.519Z,11.70
2024-03-06T11:43:25.532Z,11.70
2024-03-06T11:44:30.807Z,11.70
2024-03-06T11:45:33.249Z,11.70
2024-03-06T11:46:43.446Z,11.70
2024-03-06T11:48:00.102Z,11.60
2024-03-06T11:49:06.466Z,11.70
2024-03-06T11:50:10.075Z,11.70
2024-03-06T11:51:13.144Z,11.90
2024-03-06T11:52:15.154Z,12.00
2024-03-06T11:53:18.584Z,12.00
2024-03-06T11:54:24.547Z,12.10
2024-03-06T11:55:27.749Z,12.10
2024-03-06T11:56:30.117Z,12.00
2024-03-06T11:57:33.012Z,12.10
2024-03-06T11:58:34.917Z,12.00
2024-03-06T11:59:39.859Z,11.90
2024-03-06T12:00:43.595Z,11.90
2024-03-06T12:01:45.552Z,11.80
2024-03-06T12:02:48.658Z,11.90
2024-03-06T12:03:51.956Z,11.90
2024-03-06T12:04:55.126Z,11.90
2024-03-06T12:05:57.220Z,12.00
2024-03-06T12:07:00.295Z,11.90
2024-03-06T12:08:04.507Z,11.70
2024-03-06T12:09:06.490Z,11.60
2024-03-06T12:10:10.030Z,11.60
2024-03-06T12:11:12.129Z,11.70
2024-03-06T12:12:15.187Z,11.70
2024-03-06T12:13:17.649Z,11.60
2024-03-06T12:14:22.332Z,11.70
2024-03-06T12:15:24.314Z,11.60
2024-03-06T12:16:27.228Z,11.60
2024-03-06T12:17:29.836Z,11.60
2024-03-06T12:18:34.754Z,11.60
2024-03-06T12:19:38.144Z,11.60
2024-03-06T12:20:46.781Z,11.60
2024-03-06T12:21:49.187Z,11.70
2024-03-06T12:22:52.681Z,11.80
2024-03-06T12:24:03.931Z,12.00
2024-03-06T12:25:07.648Z,12.20
2024-03-06T12:26:11.274Z,12.50
2024-03-06T12:27:14.978Z,12.60
2024-03-06T12:28:19.044Z,12.60
2024-03-06T12:29:21.261Z,12.70
2024-03-06T12:30:24.878Z,12.80
2024-03-06T12:31:27.012Z,12.90
2024-03-06T12:32:31.394Z,13.20
2024-03-06T12:33:35.055Z,13.40
2024-03-06T12:34:39.423Z,13.50
2024-03-06T12:35:41.740Z,13.60
2024-03-06T12:36:44.812Z,13.90
2024-03-06T12:37:46.737Z,14.10
2024-03-06T12:38:55.986Z,14.40
2024-03-06T12:39:58.180Z,14.60
2024-03-06T12:41:01.543Z,14.60
2024-03-06T12:42:03.624Z,14.70
2024-03-06T12:43:06.487Z,14.80
2024-03-06T12:44:08.480Z,15.00
2024-03-06T12:45:11.766Z,15.20
2024-03-06T12:46:13.787Z,15.50
2024-03-06T12:47:16.689Z,15.50
2024-03-06T12:48:18.935Z,15.50
2024-03-06T12:49:21.985Z,15.40
2024-03-06T12:50:25.921Z,15.40
2024-03-06T12:51:28.835Z,15.50
2024-03-06T12:52:30.978Z,15.60
2024-03-06T12:53:34.077Z,15.70
2024-03-06T12:54:36.054Z,15.80
2024-03-06T12:55:38.939Z,16.00
2024-03-06T12:56:42.852Z,16.20
2024-03-06T12:57:45.868Z,16.20
2024-03-06T12:58:47.885Z,16.20
2024-03-06T12:59:51.255Z,16.10
2024-03-06T13:00:53.493Z,16.00
2024-03-06T13:01:56.580Z,15.90
2024-03-06T13:02:58.936Z,15.70
2024-03-06T13:04:06.435Z,15.20
2024-03-06T13:05:09.538Z,14.70
2024-03-06T13:06:13.803Z,14.10
2024-03-06T13:07:15.838Z,13.60
2024-03-06T13:08:18.816Z,13.20
2024-03-06T13:09:21.040Z,12.60
2024-03-06T13:10:24.122Z,12.00
2024-03-06T13:11:26.460Z,11.40
2024-03-06T13:12:29.752Z,11.00
2024-03-06T13:13:33.946Z,10.70
2024-03-06T13:14:37.566Z,10.30
2024-03-06T13:15:39.857Z,9.90
2024-03-06T13:16:42.848Z,9.70
2024-03-06T13:17:44.856Z,9.60
2024-03-06T13:18:47.933Z,9.50
2024-03-06T13:19:49.898Z,9.30
2024-03-06T13:20:52.033Z,9.10
2024-03-06T13:21:56.580Z,9.00
2024-03-06T13:22:58.763Z,8.90
2024-03-06T13:24:07.982Z,8.80
2024-03-06T13:25:10.683Z,8.70
2024-03-06T13:26:14.573Z,8.60
2024-03-06T13:27:16.489Z,8.50
